createdAt,value
2017-12-11T00:01:54.476Z,1.17
2017-12-11T00:04:20.798Z,0.90
2017-12-11T00:06:47.452Z,1.10
2017-12-11T00:09:14.713Z,2.00
2017-12-11T00:11:41.769Z,5.20
2017-12-11T00:14:08.132Z,1.10
2017-12-11T00:16:34.491Z,1.27
2017-12-11T00:19:01.181Z,1.03
2017-12-11T00:21:28.540Z,1.10
2017-12-11T00:23:55.808Z,1.17
2017-12-11T00:26:22.153Z,1.63
2017-12-11T00:28:48.489Z,1.00
2017-12-11T00:31:14.872Z,1.30
2017-12-11T00:33:42.468Z,1.07
2017-12-11T00:36:08.829Z,0.80
2017-12-11T00:38:36.918Z,0.83
2017-12-11T00:41:03.259Z,0.90
2017-12-11T00:43:30.373Z,1.20
2017-12-11T00:45:57.028Z,1.20
2017-12-11T00:48:24.179Z,1.00
2017-12-11T00:50:51.572Z,1.07
2017-12-11T00:53:18.596Z,0.87
2017-12-11T00:55:46.354Z,4.23
2017-12-11T00:58:29.863Z,1.90
2017-12-11T01:00:56.186Z,1.20
2017-12-11T01:03:23.379Z,1.00
2017-12-11T01:05:49.736Z,0.87
2017-12-11T01:08:16.971Z,0.70
2017-12-11T01:10:44.079Z,1.07
2017-12-11T01:13:10.422Z,0.73
2017-12-11T01:15:36.750Z,2.30
2017-12-11T01:18:03.856Z,0.70
2017-12-11T01:20:31.012Z,0.80
2017-12-11T01:22:58.230Z,1.00
2017-12-11T01:25:24.541Z,0.80
2017-12-11T01:27:51.593Z,1.00
2017-12-11T01:30:19.628Z,0.90
2017-12-11T01:32:47.186Z,0.87
2017-12-11T01:35:13.526Z,0.80
2017-12-11T01:37:41.195Z,0.90
2017-12-11T01:40:07.572Z,0.97
2017-12-11T01:42:34.727Z,0.80
2017-12-11T01:45:02.742Z,0.80
2017-12-11T01:47:30.123Z,0.70
2017-12-11T01:49:57.274Z,0.90
2017-12-11T01:52:23.636Z,0.80
2017-12-11T01:54:51.587Z,0.97
2017-12-11T01:57:17.929Z,3.20
2017-12-11T01:59:59.993Z,0.80
2017-12-11T02:02:27.081Z,0.80
2017-12-11T02:04:53.413Z,0.90
2017-12-11T02:07:19.748Z,0.90
2017-12-11T02:09:46.691Z,0.80
2017-12-11T02:12:13.750Z,0.90
2017-12-11T02:14:40.092Z,0.90
2017-12-11T02:17:07.235Z,0.90
2017-12-11T02:19:34.607Z,1.73
2017-12-11T02:22:00.951Z,0.80
2017-12-11T02:24:28.780Z,1.83
2017-12-11T02:26:56.607Z,1.70
2017-12-11T02:29:24.027Z,1.10
2017-12-11T02:31:51.806Z,1.10
2017-12-11T02:34:18.866Z,1.40
2017-12-11T02:36:45.910Z,1.20
2017-12-11T02:39:13.076Z,1.07
2017-12-11T02:41:39.435Z,1.30
2017-12-11T02:44:06.457Z,1.20
2017-12-11T02:46:32.805Z,2.40
2017-12-11T02:49:02.302Z,0.80
2017-12-11T02:51:29.868Z,1.30
2017-12-11T02:53:56.234Z,1.50
2017-12-11T02:56:23.364Z,0.90
2017-12-11T02:58:50.369Z,1.30
2017-12-11T03:01:16.710Z,1.10
2017-12-11T03:03:43.055Z,1.03
2017-12-11T03:06:09.733Z,2.80
2017-12-11T03:08:36.068Z,2.93
2017-12-11T03:11:02.564Z,1.70
2017-12-11T03:13:29.228Z,1.53
2017-12-11T03:15:56.716Z,1.70
2017-12-11T03:18:23.863Z,3.57
2017-12-11T03:20:50.917Z,1.60
2017-12-11T03:23:17.238Z,1.03
2017-12-11T03:25:44.611Z,1.13
2017-12-11T03:28:10.961Z,1.53
2017-12-11T03:30:37.323Z,1.73
2017-12-11T03:33:05.161Z,2.53
2017-12-11T03:35:32.206Z,3.07
2017-12-11T03:37:58.532Z,3.07
2017-12-11T03:40:24.841Z,3.07
2017-12-11T03:42:52.246Z,2.30
2017-12-11T03:45:18.571Z,1.70
2017-12-11T03:47:45.628Z,3.27
2017-12-11T03:50:12.689Z,5.97
2017-12-11T03:52:39.027Z,2.80
2017-12-11T03:55:05.369Z,7.83
2017-12-11T03:57:33.482Z,2.37
2017-12-11T04:00:00.562Z,2.33
2017-12-11T04:02:28.798Z,2.67
2017-12-11T04:04:55.121Z,3.03
2017-12-11T04:07:22.177Z,2.17
2017-12-11T04:10:04.459Z,3.73
2017-12-11T04:12:31.511Z,4.00
2017-12-11T04:14:58.572Z,2.10
2017-12-11T04:17:24.902Z,2.87
2017-12-11T04:19:51.220Z,3.13
2017-12-11T04:22:18.396Z,3.80
2017-12-11T04:24:45.545Z,4.33
2017-12-11T04:27:11.859Z,3.47
2017-12-11T04:29:38.177Z,1.93
2017-12-11T04:32:05.377Z,2.00
2017-12-11T04:34:32.732Z,1.87
2017-12-11T04:36:59.045Z,1.70
2017-12-11T04:39:27.144Z,1.30
2017-12-11T04:41:53.454Z,2.10
2017-12-11T04:44:19.773Z,1.90
2017-12-11T04:46:46.973Z,1.87
2017-12-11T04:49:14.132Z,3.07
2017-12-11T04:51:40.452Z,1.90
2017-12-11T04:54:06.779Z,1.40
2017-12-11T04:56:33.446Z,1.80
2017-12-11T04:59:00.500Z,1.53
2017-12-11T05:01:26.859Z,2.57
2017-12-11T05:03:53.986Z,1.57
2017-12-11T05:06:21.148Z,2.00
2017-12-11T05:08:48.201Z,1.50
2017-12-11T05:11:15.457Z,6.20
2017-12-11T05:13:41.794Z,1.70
2017-12-11T05:16:08.838Z,2.23
2017-12-11T05:18:35.996Z,2.43
2017-12-11T05:21:03.156Z,1.90
2017-12-11T05:23:29.524Z,1.70
2017-12-11T05:25:57.257Z,4.13
2017-12-11T05:28:23.619Z,2.37
2017-12-11T05:30:49.950Z,2.40
2017-12-11T05:33:17.201Z,2.07
2017-12-11T05:35:44.299Z,6.40
2017-12-11T05:38:10.649Z,2.83
2017-12-11T05:40:37.041Z,2.80
2017-12-11T05:43:04.476Z,3.13
2017-12-11T05:45:31.532Z,3.80
2017-12-11T05:47:58.997Z,3.27
2017-12-11T05:50:26.043Z,2.87
2017-12-11T05:52:52.370Z,2.90
2017-12-11T05:55:19.388Z,3.17
2017-12-11T05:57:46.588Z,3.10
2017-12-11T06:00:13.139Z,4.53
2017-12-11T06:02:40.188Z,3.57
2017-12-11T06:05:06.508Z,3.10
2017-12-11T06:07:32.866Z,3.23
2017-12-11T06:10:00.932Z,3.37
2017-12-11T06:12:28.052Z,1.90
2017-12-11T06:14:55.235Z,2.80
2017-12-11T06:17:22.504Z,2.13
2017-12-11T06:19:49.452Z,2.10
2017-12-11T06:22:15.756Z,4.20
2017-12-11T06:24:42.108Z,3.00
2017-12-11T06:27:08.460Z,3.83
2017-12-11T06:29:35.860Z,2.73
2017-12-11T06:32:03.689Z,4.70
2017-12-11T06:34:30.953Z,3.90
2017-12-11T06:36:57.288Z,4.37
2017-12-11T06:39:23.612Z,3.27
2017-12-11T06:41:50.772Z,2.70
2017-12-11T06:44:17.931Z,3.20
2017-12-11T06:46:44.252Z,4.17
2017-12-11T06:49:11.836Z,2.93
2017-12-11T06:51:39.145Z,5.27
2017-12-11T06:54:05.478Z,3.83
2017-12-11T06:56:31.812Z,13.00
2017-12-11T06:58:59.010Z,12.60
2017-12-11T07:01:25.348Z,11.07
2017-12-11T07:03:51.664Z,8.97
2017-12-11T07:06:19.558Z,5.30
2017-12-11T07:08:46.717Z,15.20
2017-12-11T07:11:13.873Z,7.10
2017-12-11T07:13:40.196Z,10.97
2017-12-11T07:16:07.513Z,8.33
2017-12-11T07:18:35.441Z,4.63
2017-12-11T07:21:01.772Z,8.30
2017-12-11T07:23:28.084Z,6.80
2017-12-11T07:25:55.517Z,9.23
2017-12-11T07:28:22.597Z,14.73
2017-12-11T07:30:48.915Z,8.87
2017-12-11T07:33:17.041Z,8.13
2017-12-11T07:35:44.243Z,7.23
2017-12-11T07:38:12.172Z,4.80
2017-12-11T07:40:39.329Z,6.10
2017-12-11T07:43:05.667Z,6.70
2017-12-11T07:45:33.121Z,8.30
2017-12-11T07:48:00.276Z,5.43
2017-12-11T07:50:26.596Z,2.80
2017-12-11T07:52:52.928Z,2.10
2017-12-11T07:55:19.292Z,1.60
2017-12-11T07:57:46.436Z,1.20
2017-12-11T08:00:13.697Z,1.23
2017-12-11T08:02:40.012Z,1.10
2017-12-11T08:05:07.396Z,1.10
2017-12-11T08:07:34.557Z,1.20
2017-12-11T08:10:01.805Z,1.00
2017-12-11T08:12:28.964Z,1.03
2017-12-11T08:14:56.120Z,1.20
2017-12-11T08:17:23.169Z,1.30
2017-12-11T08:19:49.507Z,1.30
2017-12-11T08:22:15.833Z,1.47
2017-12-11T08:24:42.191Z,1.67
2017-12-11T08:27:09.332Z,2.90
2017-12-11T08:29:35.640Z,6.77
2017-12-11T08:32:03.036Z,7.10
2017-12-11T08:34:30.089Z,10.90
2017-12-11T08:36:57.236Z,11.20
2017-12-11T08:39:23.550Z,11.67
2017-12-11T08:41:49.939Z,16.30
2017-12-11T08:44:16.556Z,15.40
2017-12-11T08:46:42.868Z,12.27
2017-12-11T08:49:09.942Z,12.90
2017-12-11T08:51:37.313Z,12.20
2017-12-11T08:54:03.628Z,19.83
2017-12-11T08:56:30.892Z,9.80
2017-12-11T08:58:59.483Z,12.57
2017-12-11T09:01:25.812Z,9.03
2017-12-11T09:03:53.190Z,11.30
2017-12-11T09:06:20.236Z,7.50
2017-12-11T09:08:47.387Z,11.97
2017-12-11T09:11:14.500Z,10.80
2017-12-11T09:13:40.855Z,19.63
2017-12-11T09:16:07.181Z,11.87
2017-12-11T09:18:34.467Z,12.03
2017-12-11T09:21:00.788Z,14.00
2017-12-11T09:23:27.131Z,8.03
2017-12-11T09:25:53.646Z,9.23
2017-12-11T09:28:19.977Z,9.77
2017-12-11T09:30:46.976Z,8.27
2017-12-11T09:33:14.332Z,6.70
2017-12-11T09:35:42.980Z,7.93
2017-12-11T09:38:09.305Z,8.73
2017-12-11T09:40:37.132Z,14.43
2017-12-11T09:43:04.180Z,11.60
2017-12-11T09:45:31.235Z,7.20
2017-12-11T09:47:58.292Z,12.17
2017-12-11T09:50:24.628Z,11.37
2017-12-11T09:52:51.121Z,10.17
2017-12-11T09:55:17.499Z,13.90
2017-12-11T09:57:44.500Z,16.43
2017-12-11T10:00:12.225Z,12.87
2017-12-11T10:02:39.220Z,7.60
2017-12-11T10:05:07.052Z,16.43
2017-12-11T10:07:34.205Z,9.10
2017-12-11T10:10:01.253Z,7.30
2017-12-11T10:12:28.611Z,17.53
2017-12-11T10:14:55.767Z,12.30
2017-12-11T10:17:22.109Z,19.93
2017-12-11T10:19:48.481Z,15.03
2017-12-11T10:22:15.611Z,12.87
2017-12-11T10:24:41.949Z,13.10
2017-12-11T10:27:08.365Z,10.07
2017-12-11T10:29:35.726Z,19.63
2017-12-11T10:32:03.089Z,22.70
2017-12-11T10:34:30.253Z,16.00
2017-12-11T10:36:57.339Z,16.77
2017-12-11T10:39:25.171Z,9.37
2017-12-11T10:41:51.513Z,6.80
2017-12-11T10:44:19.329Z,7.87
2017-12-11T10:46:46.019Z,14.50
2017-12-11T10:49:13.172Z,9.83
2017-12-11T10:51:40.332Z,9.63
2017-12-11T10:54:06.659Z,7.67
2017-12-11T10:56:33.310Z,14.63
2017-12-11T10:59:00.364Z,8.30
2017-12-11T11:01:27.524Z,12.10
2017-12-11T11:03:53.853Z,11.47
2017-12-11T11:06:21.129Z,8.43
2017-12-11T11:08:48.488Z,13.83
2017-12-11T11:11:14.868Z,13.83
2017-12-11T11:13:41.253Z,25.40
2017-12-11T11:16:08.708Z,21.20
2017-12-11T11:18:35.763Z,21.00
2017-12-11T11:21:02.121Z,18.07
2017-12-11T11:23:29.475Z,13.47
2017-12-11T11:25:55.793Z,10.43
2017-12-11T11:28:22.963Z,17.30
2017-12-11T11:30:50.385Z,23.23
2017-12-11T11:33:17.311Z,9.30
2017-12-11T11:35:44.275Z,11.40
2017-12-11T11:38:10.581Z,10.40
2017-12-11T11:40:37.700Z,16.50
2017-12-11T11:43:04.011Z,8.57
2017-12-11T11:45:30.499Z,9.60
2017-12-11T11:47:57.843Z,6.83
2017-12-11T11:50:24.163Z,12.27
2017-12-11T11:52:51.228Z,12.80
2017-12-11T11:55:18.380Z,9.53
2017-12-11T11:57:45.460Z,9.13
2017-12-11T12:00:12.594Z,8.90
2017-12-11T12:02:39.747Z,5.67
2017-12-11T12:05:07.099Z,6.33
2017-12-11T12:07:33.444Z,6.27
2017-12-11T12:10:00.598Z,11.13
2017-12-11T12:12:27.852Z,6.63
2017-12-11T12:14:54.798Z,7.57
2017-12-11T12:17:21.169Z,6.33
2017-12-11T12:19:48.267Z,7.40
2017-12-11T12:22:15.060Z,14.23
2017-12-11T12:24:42.032Z,8.63
2017-12-11T12:27:10.078Z,8.30
2017-12-11T12:29:37.267Z,7.27
2017-12-11T12:32:05.221Z,7.97
2017-12-11T12:34:32.451Z,7.67
2017-12-11T12:36:58.790Z,5.80
2017-12-11T12:39:25.115Z,9.43
2017-12-11T12:41:52.388Z,16.13
2017-12-11T12:44:18.739Z,9.07
2017-12-11T12:46:45.074Z,6.73
2017-12-11T12:49:12.312Z,7.83
2017-12-11T12:51:38.645Z,8.83
2017-12-11T12:54:05.804Z,9.20
2017-12-11T12:56:32.868Z,7.73
2017-12-11T12:59:01.551Z,9.93
2017-12-11T13:01:28.708Z,12.87
2017-12-11T13:03:55.052Z,11.33
2017-12-11T13:06:21.973Z,12.00
2017-12-11T13:08:49.147Z,13.73
2017-12-11T13:11:15.467Z,15.83
2017-12-11T13:13:42.635Z,10.00
2017-12-11T13:16:09.692Z,13.33
2017-12-11T13:18:37.369Z,13.80
2017-12-11T13:21:03.688Z,12.03
2017-12-11T13:23:30.049Z,17.57
2017-12-11T13:25:57.084Z,14.53
2017-12-11T13:28:23.429Z,15.67
2017-12-11T13:30:51.369Z,13.77
2017-12-11T13:33:18.676Z,13.33
2017-12-11T13:35:45.001Z,13.07
2017-12-11T13:38:11.341Z,12.57
2017-12-11T13:40:37.725Z,14.07
2017-12-11T13:43:04.084Z,15.13
2017-12-11T13:45:30.534Z,12.73
2017-12-11T13:47:57.692Z,15.13
2017-12-11T13:50:24.848Z,17.33
2017-12-11T13:52:51.976Z,15.43
2017-12-11T13:55:19.158Z,14.60
2017-12-11T13:57:46.420Z,15.17
2017-12-11T14:00:13.777Z,15.07
2017-12-11T14:02:40.853Z,13.30
2017-12-11T14:05:07.798Z,10.23
2017-12-11T14:07:35.549Z,15.87
2017-12-11T14:10:02.812Z,11.50
2017-12-11T14:12:30.106Z,14.30
2017-12-11T14:14:57.172Z,14.00
2017-12-11T14:17:23.489Z,10.43
2017-12-11T14:19:50.613Z,15.63
2017-12-11T14:22:17.860Z,12.70
2017-12-11T14:24:44.810Z,12.57
2017-12-11T14:27:11.188Z,21.97
2017-12-11T14:29:38.385Z,11.17
2017-12-11T14:32:05.669Z,15.67
2017-12-11T14:34:32.916Z,11.90
2017-12-11T14:36:59.245Z,11.53
2017-12-11T14:39:25.573Z,14.40
2017-12-11T14:41:52.236Z,17.00
2017-12-11T14:44:18.580Z,11.03
2017-12-11T14:46:44.981Z,12.80
2017-12-11T14:49:12.068Z,7.43
2017-12-11T14:51:39.229Z,9.10
2017-12-11T14:54:06.269Z,14.10
2017-12-11T14:56:33.536Z,18.43
2017-12-11T14:59:00.685Z,11.47
2017-12-11T15:01:26.993Z,13.73
2017-12-11T15:03:53.308Z,15.53
2017-12-11T15:06:20.509Z,14.00
2017-12-11T15:08:47.569Z,18.03
2017-12-11T15:11:13.908Z,16.30
2017-12-11T15:13:40.245Z,21.63
2017-12-11T15:16:07.439Z,19.80
2017-12-11T15:18:34.570Z,15.40
2017-12-11T15:21:01.814Z,21.53
2017-12-11T15:23:28.169Z,19.13
2017-12-11T15:25:54.559Z,34.57
2017-12-11T15:28:21.228Z,21.37
2017-12-11T15:30:48.814Z,12.80
2017-12-11T15:33:15.940Z,19.23
2017-12-11T15:35:43.100Z,21.40
2017-12-11T15:38:09.473Z,28.60
2017-12-11T15:40:37.197Z,26.87
2017-12-11T15:43:04.364Z,24.30
2017-12-11T15:45:32.282Z,19.70
2017-12-11T15:47:59.393Z,18.83
2017-12-11T15:50:26.447Z,26.80
2017-12-11T15:52:53.700Z,30.00
2017-12-11T15:55:20.958Z,19.37
2017-12-11T15:57:48.014Z,18.50
2017-12-11T16:00:15.165Z,34.30
2017-12-11T16:02:42.420Z,25.53
2017-12-11T16:05:09.580Z,30.87
2017-12-11T16:07:36.737Z,20.27
2017-12-11T16:10:03.885Z,24.60
2017-12-11T16:12:30.220Z,22.77
2017-12-11T16:14:56.603Z,17.33
2017-12-11T16:17:25.477Z,17.70
2017-12-11T16:19:51.828Z,17.30
2017-12-11T16:22:18.996Z,14.60
2017-12-11T16:24:45.453Z,18.83
2017-12-11T16:27:11.816Z,17.73
2017-12-11T16:29:38.262Z,22.60
2017-12-11T16:32:05.418Z,23.00
2017-12-11T16:34:32.781Z,20.80
2017-12-11T16:36:59.129Z,20.10
2017-12-11T16:39:26.320Z,24.73
2017-12-11T16:41:53.522Z,18.07
2017-12-11T16:44:20.758Z,20.60
2017-12-11T16:46:47.849Z,18.97
2017-12-11T16:49:16.533Z,18.87
2017-12-11T16:51:43.572Z,19.23
2017-12-11T16:54:10.624Z,18.87
2017-12-11T16:56:36.990Z,18.00
2017-12-11T16:59:04.021Z,19.57
2017-12-11T17:01:30.380Z,12.93
2017-12-11T17:03:56.723Z,32.00
2017-12-11T17:06:24.201Z,16.70
2017-12-11T17:08:52.378Z,12.07
2017-12-11T17:11:19.488Z,16.20
2017-12-11T17:13:47.081Z,19.23
2017-12-11T17:16:14.924Z,15.40
2017-12-11T17:18:41.293Z,16.63
2017-12-11T17:21:07.596Z,21.33
2017-12-11T17:23:34.852Z,20.57
2017-12-11T17:26:01.185Z,21.70
2017-12-11T17:28:27.540Z,14.10
2017-12-11T17:30:54.585Z,18.43
2017-12-11T17:33:21.796Z,21.80
2017-12-11T17:35:48.742Z,21.20
2017-12-11T17:38:15.945Z,14.23
2017-12-11T17:40:43.102Z,19.33
2017-12-11T17:43:11.789Z,15.37
2017-12-11T17:45:38.941Z,9.43
2017-12-11T17:48:06.100Z,17.57
2017-12-11T17:50:34.073Z,17.23
2017-12-11T17:53:00.481Z,16.10
2017-12-11T17:55:26.832Z,12.60
2017-12-11T17:57:54.041Z,12.10
2017-12-11T18:00:21.119Z,19.20
2017-12-11T18:02:48.105Z,15.37
2017-12-11T18:05:15.268Z,11.80
2017-12-11T18:07:41.593Z,11.87
2017-12-11T18:10:08.652Z,16.80
2017-12-11T18:12:36.728Z,18.63
2017-12-11T18:15:03.104Z,16.87
2017-12-11T18:17:31.042Z,20.27
2017-12-11T18:19:59.185Z,17.77
2017-12-11T18:22:26.190Z,23.87
2017-12-11T18:24:52.582Z,20.10
2017-12-11T18:27:18.929Z,20.40
2017-12-11T18:29:45.581Z,15.83
2017-12-11T18:32:13.146Z,13.23
2017-12-11T18:34:40.300Z,15.80
2017-12-11T18:37:07.353Z,20.33
2017-12-11T18:39:34.413Z,16.77
2017-12-11T18:42:01.561Z,14.67
2017-12-11T18:44:27.900Z,19.47
2017-12-11T18:46:54.852Z,14.60
2017-12-11T18:49:22.212Z,15.47
2017-12-11T18:51:48.525Z,16.27
2017-12-11T18:54:14.836Z,12.73
2017-12-11T18:56:41.937Z,14.90
2017-12-11T18:59:09.505Z,13.30
2017-12-11T19:01:35.852Z,21.00
2017-12-11T19:04:02.971Z,12.97
2017-12-11T19:06:29.740Z,9.43
2017-12-11T19:08:56.796Z,24.23
2017-12-11T19:11:23.949Z,15.20
2017-12-11T19:13:50.284Z,16.27
2017-12-11T19:16:17.442Z,16.33
2017-12-11T19:18:43.900Z,17.13
2017-12-11T19:21:10.265Z,14.17
2017-12-11T19:23:37.677Z,20.10
2017-12-11T19:26:04.933Z,24.53
2017-12-11T19:28:31.309Z,18.27
2017-12-11T19:30:59.250Z,17.07
2017-12-11T19:33:26.316Z,17.57
2017-12-11T19:35:53.562Z,23.10
2017-12-11T19:38:22.056Z,19.93
2017-12-11T19:40:49.201Z,16.00
2017-12-11T19:43:16.252Z,14.00
2017-12-11T19:45:44.285Z,11.97
2017-12-11T19:48:12.608Z,10.90
2017-12-11T19:50:39.657Z,9.90
2017-12-11T19:53:06.713Z,7.37
2017-12-11T19:55:34.177Z,10.63
2017-12-11T19:58:01.334Z,6.47
2017-12-11T20:00:28.332Z,9.77
2017-12-11T20:02:56.259Z,5.70
2017-12-11T20:05:24.151Z,7.70
2017-12-11T20:07:51.835Z,6.60
2017-12-11T20:10:19.676Z,7.23
2017-12-11T20:12:46.817Z,5.10
2017-12-11T20:15:13.897Z,5.53
2017-12-11T20:17:41.025Z,5.53
2017-12-11T20:20:08.193Z,7.37
2017-12-11T20:22:35.235Z,7.10
2017-12-11T20:25:02.337Z,5.93
2017-12-11T20:27:29.749Z,4.60
2017-12-11T20:29:56.914Z,4.23
2017-12-11T20:32:24.849Z,6.30
2017-12-11T20:34:51.931Z,5.57
2017-12-11T20:37:19.132Z,7.20
2017-12-11T20:39:46.453Z,5.10
2017-12-11T20:42:14.845Z,5.97
2017-12-11T20:44:42.799Z,5.57
2017-12-11T20:47:10.261Z,6.50
2017-12-11T20:49:37.389Z,4.23
2017-12-11T20:52:04.573Z,5.37
2017-12-11T20:54:31.701Z,5.37
2017-12-11T20:56:58.685Z,4.07
2017-12-11T20:59:26.364Z,4.20
2017-12-11T21:01:53.404Z,4.00
2017-12-11T21:04:20.557Z,4.37
2017-12-11T21:06:47.717Z,4.87
2017-12-11T21:09:15.581Z,23.67
2017-12-11T21:11:42.634Z,3.53
2017-12-11T21:14:09.697Z,3.47
2017-12-11T21:16:36.940Z,3.40
2017-12-11T21:19:04.302Z,3.87
2017-12-11T21:21:31.364Z,3.17
2017-12-11T21:24:00.044Z,2.80
2017-12-11T21:26:27.196Z,2.73
2017-12-11T21:28:54.428Z,2.53
2017-12-11T21:31:22.135Z,2.83
2017-12-11T21:33:49.228Z,2.67
2017-12-11T21:36:16.365Z,2.67
2017-12-11T21:38:44.505Z,2.43
2017-12-11T21:41:11.561Z,2.07
2017-12-11T21:43:38.717Z,2.47
2017-12-11T21:46:05.781Z,2.83
2017-12-11T21:48:33.746Z,2.27
2017-12-11T21:51:00.908Z,2.37
2017-12-11T21:53:29.588Z,2.47
2017-12-11T21:55:56.637Z,3.20
2017-12-11T21:58:24.101Z,3.73
2017-12-11T22:00:51.100Z,4.03
2017-12-11T22:03:19.128Z,4.80
2017-12-11T22:05:46.132Z,2.97
2017-12-11T22:08:13.332Z,2.20
2017-12-11T22:10:40.493Z,2.00
2017-12-11T22:13:07.644Z,3.10
2017-12-11T22:15:34.801Z,2.00
2017-12-11T22:18:02.876Z,1.80
2017-12-11T22:20:30.028Z,1.90
2017-12-11T22:22:57.289Z,3.07
2017-12-11T22:25:24.345Z,2.90
2017-12-11T22:27:51.396Z,2.20
2017-12-11T22:30:18.556Z,3.80
2017-12-11T22:32:45.811Z,2.60
2017-12-11T22:35:12.817Z,5.10
2017-12-11T22:37:40.121Z,2.07
2017-12-11T22:40:07.169Z,2.50
2017-12-11T22:42:34.173Z,2.07
2017-12-11T22:45:01.268Z,3.13
2017-12-11T22:47:28.636Z,6.07
2017-12-11T22:49:55.508Z,3.27
2017-12-11T22:52:22.544Z,6.70
2017-12-11T22:54:49.588Z,5.70
2017-12-11T22:57:17.049Z,3.00
2017-12-11T22:59:44.308Z,4.73
2017-12-11T23:02:11.568Z,4.37
2017-12-11T23:04:38.708Z,4.73
2017-12-11T23:07:05.812Z,5.23
2017-12-11T23:09:33.641Z,3.60
2017-12-11T23:12:01.617Z,3.90
2017-12-11T23:14:29.189Z,59.07
2017-12-11T23:16:56.238Z,29.20
2017-12-11T23:19:23.382Z,13.97
2017-12-11T23:21:50.557Z,8.53
2017-12-11T23:24:18.316Z,6.60
2017-12-11T23:26:45.480Z,3.77
2017-12-11T23:29:12.733Z,3.17
2017-12-11T23:31:39.784Z,3.00
2017-12-11T23:34:07.143Z,4.20
2017-12-11T23:36:34.301Z,3.70
2017-12-11T23:39:01.425Z,2.27
2017-12-11T23:41:28.515Z,2.40
2017-12-11T23:43:56.598Z,2.50
2017-12-11T23:46:23.733Z,5.77
2017-12-11T23:48:50.785Z,3.33
2017-12-11T23:51:19.451Z,4.70
2017-12-11T23:53:46.529Z,3.87
2017-12-11T23:56:13.891Z,3.03
2017-12-11T23:58:40.949Z,1.90
